Claudio Trevisan

Olheiro-Chefe - AC Milan
20 Jan 2028
Quinta-feira
Processo

Personalidade

Adaptabilidade (7) Ambição (6) Controvérsia (17) Lealdade (12) Pressão (17) Profissionalismo (9) Espírito Esportivo (15) Temperamento (12)

Perfil

Estilo de Treinamento Democrático
Licença Nacional A
Determinação 6
Gestão de Pessoas 16
Motivação 13
Disciplina 12
Satisfação no Trabalho
100%
Fadiga
0%
Função Olheiro-Chefe
Salário 61.6K p/s
Contrato 14.03.2028

Desempenho

Comportamento Bom
Eficácia do Treinamento
60%
Desenvolvimento do Jogador
75%
Prevenção de Lesões
30%
Implementação Tática
60%

Eventos Recentes

Participando de desenvolvimento profissional agora
Participou de uma reunião de recrutamento agora
Participou de uma reunião de recrutamento agora
Participou de uma reunião de recrutamento agora
Recomendou um alvo de transferência agora
Participou de uma reunião de recrutamento agora
Negociação de contrato iniciada agora
Participando de desenvolvimento profissional agora

Monitorando agora

104
Jogador Clube Status Habilidade Confiança Observado Última observação Último voto
David Neres Udinese Ativo 156 / 150 58% 1 02.01.2028 -
Jofre Torrents Ajax Ativo 134 / 132 40% 8 01.01.2028 -
Jorrel Hato Chelsea Ativo 150 / 162 40% 1 01.01.2028 -
Arthur Atta Fiorentina Ativo 146 / 155 40% 1 31.12.2027 -
Jayden Addai Como Ativo 148 / 136 40% 1 31.12.2027 -
Matías Soulé AS Roma Ativo 161 / 160 40% 1 30.08.2027 -
Benjamín Domínguez Bologna Ativo 127 / 146 40% 1 30.08.2027 -
Máximo Perrone Como Ativo 154 / 157 40% 1 23.08.2027 -
Jhon Jhon Zenit Ativo 123 / 142 40% 1 22.08.2027 -
Matteo Prati Cagliari Ativo 128 / 137 40% 1 22.08.2027 -
Cristian Shpendi Cesena Ativo 136 / 131 40% 1 20.08.2027 -
Assane Diao Lazio Ativo 155 / 157 40% 4 19.08.2027 -
Pape Matar Sarr Tottenham Ativo 149 / 157 40% 2 19.08.2027 -
Kian Fitz-Jim Torino Ativo 148 / 149 40% 1 18.08.2027 -
Mario Mitaj Al-Ittihad Ativo 124 / 146 40% 1 18.08.2027 -
Samuele di Benedetto Bari Ativo 117 / 126 40% 1 21.06.2027 -
Borja Sainz Fiorentina Ativo 146 / 150 40% 1 31.05.2027 -
Samuel Lucero Defensa y Justicia Ativo 120 / 121 40% 6 28.05.2027 -
Ezra Mayers West Ham United Ativo 126 / 125 40% 2 22.05.2027 -
Veljko Milosavljević Aston Villa Ativo 134 / 129 40% 3 21.05.2027 -
Matvey Kislyak CSKA Moscow Ativo 139 / 147 40% 4 15.05.2027 -
Christ Inao Oulaï Fiorentina Ativo 131 / 131 40% 3 13.05.2027 -
Luka Vušković Manchester United Ativo 137 / 138 40% 3 12.05.2027 -
Juan Giménez Celta Ativo 117 / 132 40% 3 10.05.2027 -
Alexandro Maidana Talleres Ativo 107 / 119 40% 5 07.05.2027 -
Sascha Britschgi Padova Ativo 110 / 124 40% 9 06.05.2027 -
Agustín Medina Valencia Ativo 116 / 117 40% 5 05.05.2027 -
Dmitry Pestryakov Dinamo Moscow Ativo 101 / 110 40% 1 05.05.2027 -
Karim Coulibaly RC Strasbourg Ativo 113 / 128 40% 5 03.05.2027 -
Valentin Atangana Al-Ahli Ativo 116 / 143 40% 5 30.04.2027 -
Abdoulaye Kanté Al-Ettifaq Ativo 108 / 132 40% 2 29.04.2027 -
Bohdan Budko AZ Ativo 122 / 116 40% 2 20.04.2027 -
Nazareno Roselli Defensa y Justicia Ativo 113 / 122 40% 4 18.04.2027 -
Dayann Methalie Aston Villa Ativo 125 / 140 40% 1 15.04.2027 -
Juan Rodríguez Cagliari Ativo 116 / 119 40% 2 14.04.2027 -
Josh King Chelsea Ativo 140 / 139 40% 2 12.04.2027 -
Chema Andrés Arsenal Ativo 144 / 147 40% 4 08.04.2027 -
Dean Huijsen Villarreal Ativo 137 / 159 40% 3 03.04.2027 -
Santiago Fernández Talleres Ativo 108 / 128 40% 1 21.03.2027 -
Joško Gvardiol Napoli Ativo 168 / 162 40% 5 09.02.2027 -
Pierre Kalulu Juventus Ativo 159 / 155 40% 3 06.02.2027 -
Franculino Crystal Palace Negociando 137 / 141 67% 1 18.01.2027 -
Thiago Almada AC Milan Ativo 145 / 146 69% 1 11.01.2027 -
Santiago Castro AS Roma Ativo 142 / 157 40% 1 11.01.2027 -
Santiago Pierotti Lecce Ativo 136 / 140 40% 1 11.01.2027 -
Khvicha Kvaratskhelia Paris Saint-Germain Ativo 165 / 165 91% 1 01.01.2027 Aprovar
Diogo Costa Manchester City Negociando 160 / 160 69% 1 01.01.2027 -
Randal Kolo Muani Juventus Ativo 157 / 145 40% 2 31.12.2026 -
Romano Schmid Frosinone Ativo 133 / 145 40% 1 31.12.2026 -
Dušan Vlahović Juventus Ativo 158 / 151 40% 2 29.12.2026 Mais informações
Jens Odgaard Bologna Ativo 134 / 149 40% 1 29.12.2026 -
Bremer Juventus Ativo 174 / 166 40% 13 27.12.2026 -
Manfred Ugalde Spartak Moscow Ativo 123 / 122 40% 1 24.12.2026 -
Kyrylo Fesiun Shakhtar Ativo 126 / 117 40% 1 24.12.2026 -
Théo Hernández Al-Hilal Perdido 138 / 164 40% 5 23.12.2026 -
Ruben van Bommel Ferencvaros Ativo 125 / 140 40% 2 22.12.2026 -
Mateo Pellegrino Fiorentina Ativo 139 / 146 40% 1 22.12.2026 -
Zakaria Aboukhlal Torino Ativo 129 / 139 40% 1 11.12.2026 -
Trevoh Chalobah Como Ativo 147 / 145 40% 6 07.12.2026 -
Alessandro Buongiorno Sassuolo Ativo 146 / 165 40% 8 05.12.2026 -
Giacomo Raspadori Atalanta Ativo 153 / 147 40% 2 04.12.2026 -
Fabián Paris Saint-Germain Ativo 170 / 174 40% 4 22.11.2026 -
Nicolò Zaniolo Udinese Ativo 149 / 135 40% 1 17.11.2026 -
Nicolás Sumavil Platense Ativo 123 / 112 40% 2 13.11.2026 -
Donyell Malen AS Roma Ativo 152 / 152 40% 1 11.11.2026 -
Kévin Denkey FC Cincinnati Ativo 113 / 130 40% 1 31.10.2026 -
Gianluca Mancini AS Roma Ativo 146 / 161 40% 2 27.10.2026 -
Adnan Courtois KV Oostende Ativo 131 / 137 40% 1 26.10.2026 -
Patrick Schulte Columbus Crew Ativo 129 / 138 40% 1 25.10.2026 -
Jeremie Frimpong Liverpool Ativo 156 / 152 40% 1 22.10.2026 -
Youri Tielemans Manchester United Ativo 157 / 164 40% 4 20.10.2026 -
Rúben Dias Manchester City Ativo 158 / 179 40% 2 19.10.2026 -
Matheus Nunes Manchester City Ativo 165 / 150 40% 1 19.10.2026 -
Ramiro Ruiz Rodríguez Atlético Tucumán Ativo 116 / 123 40% 1 19.10.2026 -
Kai Havertz Arsenal Ativo 158 / 149 40% 1 18.10.2026 -
Sven Botman Newcastle United Ativo 158 / 164 40% 4 16.10.2026 -
Tommy Conway Middlesbrough Ativo 123 / 116 40% 1 16.10.2026 -
Wesley Fofana Chelsea Ativo 150 / 167 40% 5 15.10.2026 -
Tino Livramento Newcastle United Ativo 161 / 167 40% 1 12.10.2026 -
Nico González Newcastle United Ativo 154 / 151 40% 3 11.10.2026 -
Michael Cooper Sheffield United Ativo 120 / 127 40% 1 10.10.2026 -
Marc Guéhi Manchester City Ativo 169 / 160 40% 4 08.10.2026 -
Gabriel Arsenal Ativo 173 / 179 40% 3 07.10.2026 -
Levi Colwill Chelsea Ativo 153 / 155 40% 5 06.10.2026 -
Matthijs de Ligt Manchester United Ativo 158 / 149 40% 1 04.10.2026 -
Morgan Rogers Chelsea Ativo 164 / 154 40% 1 04.10.2026 -
Georginio Rutter Brighton Ativo 147 / 147 40% 1 04.10.2026 -
Declan Rice Arsenal Ativo 175 / 176 40% 4 29.09.2026 Observar
Amadou Onana Aston Villa Ativo 147 / 159 40% 1 29.09.2026 -
Manuel Ospina Cortulua Ativo 117 / 114 40% 1 29.09.2026 -
Matheus Cunha Manchester United Ativo 164 / 167 40% 1 29.09.2026 -
Alexis Cuello San Lorenzo Ativo 133 / 131 40% 1 28.09.2026 -
Nicolò Tresoldi Club Brugge Ativo 138 / 125 40% 1 28.09.2026 -
Alexis Mac Allister Liverpool Ativo 161 / 155 40% 2 27.09.2026 -
Ozziel Herrera Tigres Ativo 130 / 115 40% 1 22.09.2026 -
Moisés Caicedo Chelsea Ativo 160 / 176 40% 2 20.09.2026 -
Jan Paul van Hecke Tottenham Ativo 148 / 151 40% 1 19.09.2026 -
Ryan Gravenberch Liverpool Ativo 167 / 162 40% 2 18.09.2026 -
Micky van de Ven Tottenham Ativo 144 / 159 40% 1 14.09.2026 -
Erick Reyes Toluca Ativo 139 / 154 40% 1 13.09.2026 -
Esteban Glellel Quilmes Ativo 108 / 108 40% 1 12.09.2026 -
Leon Goretzka Aston Villa Ativo 147 / 161 40% 1 07.08.2026 -
Antoine Semenyo Manchester City Ativo 148 / 158 40% 1 05.08.2026 -
Rodri Barcelona Ativo 174 / 183 40% 1 02.08.2026 -